Airfield :
LOGIN :

Register | Disclaimer

   EN    FR    IT 

 










Legend :    VFR   Marginal VFR   IFR   Intensive IFR   Very Intensive IFR
Visi :
Ceiling :
>= 8 km
>= 3000ft
5 to 8 km
1000 to 3000 ft
1500m to 5 km
500 to 1000 ft
800 to 1500m
200 to 500 ft
< 800m
< 200 ft
Symbols :   Thunderstorms  Fog  Heavy snow  Heavy precipitations  Wind > 20 kt
SIGMETs :     Misc.  Thunderstorms  Icing  Turbulence  Mountain Waves  Volcanic Ashes






- Airport Elevation : 989 ft
- IATA code : TRN


LIMF - Torino Caselle

CURRENT METAR :
  • 181320Z 28015KT 9999 SCT030CB BKN060 08/01 Q1010

EXPIRED METARs :
  • 181250Z 30019KT 9999 SCT040CB BKN060 09/01 Q1009
  • 181220Z 35013KT 9999 SCT040CB BKN070 11/M00 Q1009
  • 181150Z 02004KT 320V060 9999 SCT050CB 14/M01 Q1008
  • 181120Z 08007KT 030V120 9999 FEW050TCU SCT070 15/01 Q1009
  • 181050Z 06009KT 030V100 9999 FEW050TCU 14/M01 Q1008
  • 181020Z 09012KT 9999 FEW050TCU 13/M03 Q1008
  • 180950Z 07011KT 050V120 9999 FEW050TCU 13/M03 Q1008
  • 180920Z 10007KT 060V140 CAVOK 13/M01 Q1008
  • 180850Z 09004KT 360V140 CAVOK 13/M01 Q1008

TAF TAF LIMF
Valid from the 18 at 12:00 until the 19 at 12:00 UTC


181100Z 1812/1912 04010KT 9999 SCT040
TEMPO 1812/1817 TSRA
BECMG 1816/1818 VRB05KT



MET'MAP, your aeronautical weather chart ! - Copyright ORBIFLY December 2007 - Disclaimer

ORBIFLY MET'MAP TEAM :

Programming & Development : Alexandra Zaïnal
Original concept : Baudouin d'Aumeries
Technical & hardware support : Manuel Goepfert
Assistance : Marc-Olivier Méhu




SOURCES & CREDITS :

   NOAA